sensor_id;sensor_type;location;lat;lon;timestamp;pressure;altitude;pressure_sealevel;temperature;humidity
20394;BME280;10356;50.544;9.642;2022-07-06T00:00:47;98779.34;;;16.01;61.33
20394;BME280;10356;50.544;9.642;2022-07-06T00:03:15;98784.19;;;15.95;61.23
20394;BME280;10356;50.544;9.642;2022-07-06T00:05:41;98783.75;;;15.90;61.27
20394;BME280;10356;50.544;9.642;2022-07-06T00:08:08;98782.69;;;15.83;61.47
20394;BME280;10356;50.544;9.642;2022-07-06T00:10:34;98785.31;;;15.83;61.32
20394;BME280;10356;50.544;9.642;2022-07-06T00:13:01;98792.91;;;15.86;61.08
20394;BME280;10356;50.544;9.642;2022-07-06T00:15:27;98787.09;;;15.83;60.96
20394;BME280;10356;50.544;9.642;2022-07-06T00:17:54;98781.28;;;15.79;61.01
20394;BME280;10356;50.544;9.642;2022-07-06T00:20:22;98787.38;;;15.70;61.59
20394;BME280;10356;50.544;9.642;2022-07-06T00:22:48;98800.50;;;15.61;63.21
20394;BME280;10356;50.544;9.642;2022-07-06T00:25:15;98795.94;;;15.53;63.22
20394;BME280;10356;50.544;9.642;2022-07-06T00:27:42;98799.22;;;15.46;63.80
20394;BME280;10356;50.544;9.642;2022-07-06T00:30:09;98793.78;;;15.38;64.39
20394;BME280;10356;50.544;9.642;2022-07-06T00:32:35;98795.56;;;15.37;63.96
20394;BME280;10356;50.544;9.642;2022-07-06T00:35:02;98793.47;;;15.31;64.04
20394;BME280;10356;50.544;9.642;2022-07-06T00:37:30;98797.22;;;15.29;64.03
20394;BME280;10356;50.544;9.642;2022-07-06T00:39:57;98799.56;;;15.22;64.83
20394;BME280;10356;50.544;9.642;2022-07-06T00:42:24;98788.63;;;15.17;65.11
20394;BME280;10356;50.544;9.642;2022-07-06T00:44:50;98791.34;;;15.06;65.74
20394;BME280;10356;50.544;9.642;2022-07-06T00:47:17;98797.16;;;15.00;66.06
20394;BME280;10356;50.544;9.642;2022-07-06T00:49:43;98796.84;;;14.93;67.00
20394;BME280;10356;50.544;9.642;2022-07-06T00:52:28;98799.31;;;14.95;66.87
20394;BME280;10356;50.544;9.642;2022-07-06T00:54:56;98794.34;;;14.92;67.36
20394;BME280;10356;50.544;9.642;2022-07-06T00:57:22;98802.38;;;15.00;67.09
20394;BME280;10356;50.544;9.642;2022-07-06T00:59:49;98800.28;;;14.94;67.58
20394;BME280;10356;50.544;9.642;2022-07-06T01:02:15;98797.41;;;14.97;66.93
20394;BME280;10356;50.544;9.642;2022-07-06T01:04:42;98796.59;;;14.96;67.00
20394;BME280;10356;50.544;9.642;2022-07-06T01:07:08;98796.69;;;14.95;67.17
20394;BME280;10356;50.544;9.642;2022-07-06T01:09:36;98794.06;;;14.95;67.19
20394;BME280;10356;50.544;9.642;2022-07-06T01:12:04;98797.66;;;14.94;67.61
20394;BME280;10356;50.544;9.642;2022-07-06T01:14:32;98786.47;;;14.92;67.96
20394;BME280;10356;50.544;9.642;2022-07-06T01:16:59;98784.41;;;14.95;67.64
20394;BME280;10356;50.544;9.642;2022-07-06T01:19:25;98781.09;;;14.93;67.94
20394;BME280;10356;50.544;9.642;2022-07-06T01:21:53;98785.25;;;14.96;67.90
20394;BME280;10356;50.544;9.642;2022-07-06T01:24:20;98789.81;;;14.94;68.19
20394;BME280;10356;50.544;9.642;2022-07-06T01:26:46;98784.97;;;14.99;68.22
20394;BME280;10356;50.544;9.642;2022-07-06T01:29:13;98788.72;;;14.96;68.65
20394;BME280;10356;50.544;9.642;2022-07-06T01:31:46;98780.56;;;14.99;68.71
20394;BME280;10356;50.544;9.642;2022-07-06T01:34:13;98780.56;;;14.99;68.99
20394;BME280;10356;50.544;9.642;2022-07-06T01:36:39;98784.03;;;15.00;69.34
20394;BME280;10356;50.544;9.642;2022-07-06T01:39:08;98781.69;;;15.06;69.29
20394;BME280;10356;50.544;9.642;2022-07-06T01:41:35;98788.28;;;15.01;69.53
20394;BME280;10356;50.544;9.642;2022-07-06T01:44:01;98786.38;;;15.03;69.59
20394;BME280;10356;50.544;9.642;2022-07-06T01:46:28;98783.56;;;14.95;70.20
20394;BME280;10356;50.544;9.642;2022-07-06T01:48:55;98777.63;;;14.93;69.73
20394;BME280;10356;50.544;9.642;2022-07-06T01:51:22;98781.06;;;14.84;70.36
20394;BME280;10356;50.544;9.642;2022-07-06T01:53:49;98786.31;;;14.84;70.14
20394;BME280;10356;50.544;9.642;2022-07-06T01:56:18;98783.38;;;14.77;70.50
20394;BME280;10356;50.544;9.642;2022-07-06T01:58:45;98784.03;;;14.70;71.01
20394;BME280;10356;50.544;9.642;2022-07-06T02:01:13;98778.22;;;14.66;71.17
20394;BME280;10356;50.544;9.642;2022-07-06T02:03:41;98785.66;;;14.61;72.28
20394;BME280;10356;50.544;9.642;2022-07-06T02:06:08;98781.31;;;14.51;72.43
20394;BME280;10356;50.544;9.642;2022-07-06T02:08:35;98785.81;;;14.39;72.87
20394;BME280;10356;50.544;9.642;2022-07-06T02:11:03;98783.31;;;14.38;72.95
20394;BME280;10356;50.544;9.642;2022-07-06T02:13:31;98785.25;;;14.36;73.10
20394;BME280;10356;50.544;9.642;2022-07-06T02:15:59;98784.91;;;14.29;73.19
20394;BME280;10356;50.544;9.642;2022-07-06T02:18:25;98778.38;;;14.23;73.40
20394;BME280;10356;50.544;9.642;2022-07-06T02:20:52;98783.16;;;14.18;73.85
20394;BME280;10356;50.544;9.642;2022-07-06T02:23:18;98792.03;;;14.06;74.92
20394;BME280;10356;50.544;9.642;2022-07-06T02:25:45;98791.13;;;13.96;75.63
20394;BME280;10356;50.544;9.642;2022-07-06T02:28:11;98784.28;;;13.84;75.98
20394;BME280;10356;50.544;9.642;2022-07-06T02:30:39;98785.63;;;13.79;76.24
20394;BME280;10356;50.544;9.642;2022-07-06T02:33:06;98783.66;;;13.71;76.52
20394;BME280;10356;50.544;9.642;2022-07-06T02:35:33;98787.34;;;13.69;76.19
20394;BME280;10356;50.544;9.642;2022-07-06T02:37:59;98791.88;;;13.67;76.29
20394;BME280;10356;50.544;9.642;2022-07-06T02:40:26;98784.66;;;13.59;76.53
20394;BME280;10356;50.544;9.642;2022-07-06T02:42:52;98789.19;;;13.57;76.65
20394;BME280;10356;50.544;9.642;2022-07-06T02:45:19;98789.97;;;13.58;76.80
20394;BME280;10356;50.544;9.642;2022-07-06T02:47:46;98791.66;;;13.59;76.47
20394;BME280;10356;50.544;9.642;2022-07-06T02:50:13;98786.56;;;13.57;76.76
20394;BME280;10356;50.544;9.642;2022-07-06T02:52:39;98797.06;;;13.46;77.71
20394;BME280;10356;50.544;9.642;2022-07-06T02:55:07;98794.91;;;13.51;77.13
20394;BME280;10356;50.544;9.642;2022-07-06T02:57:33;98799.44;;;13.49;77.09
20394;BME280;10356;50.544;9.642;2022-07-06T03:00:00;98797.31;;;13.43;77.45
20394;BME280;10356;50.544;9.642;2022-07-06T03:02:27;98800.50;;;13.35;78.48
20394;BME280;10356;50.544;9.642;2022-07-06T03:04:55;98800.06;;;13.30;78.39
20394;BME280;10356;50.544;9.642;2022-07-06T03:07:21;98798.38;;;13.29;78.29
20394;BME280;10356;50.544;9.642;2022-07-06T03:09:48;98813.78;;;13.23;78.42
20394;BME280;10356;50.544;9.642;2022-07-06T03:12:15;98808.75;;;13.20;79.16
20394;BME280;10356;50.544;9.642;2022-07-06T03:14:42;98814.47;;;13.14;80.03
20394;BME280;10356;50.544;9.642;2022-07-06T03:17:08;98815.53;;;13.11;80.53
20394;BME280;10356;50.544;9.642;2022-07-06T03:19:35;98810.69;;;13.07;80.88
20394;BME280;10356;50.544;9.642;2022-07-06T03:22:03;98814.13;;;13.07;80.73
20394;BME280;10356;50.544;9.642;2022-07-06T03:24:30;98811.63;;;13.06;80.55
20394;BME280;10356;50.544;9.642;2022-07-06T03:26:56;98814.25;;;13.06;80.70
20394;BME280;10356;50.544;9.642;2022-07-06T03:29:23;98813.91;;;13.10;80.21
20394;BME280;10356;50.544;9.642;2022-07-06T03:31:49;98811.75;;;13.04;80.88
20394;BME280;10356;50.544;9.642;2022-07-06T03:34:16;98814.75;;;13.11;80.59
20394;BME280;10356;50.544;9.642;2022-07-06T03:36:42;98808.09;;;13.07;80.53
20394;BME280;10356;50.544;9.642;2022-07-06T03:39:10;98808.09;;;13.07;80.49
20394;BME280;10356;50.544;9.642;2022-07-06T03:41:37;98811.75;;;13.04;80.67
20394;BME280;10356;50.544;9.642;2022-07-06T03:44:04;98811.75;;;13.04;80.77
20394;BME280;10356;50.544;9.642;2022-07-06T03:46:30;98804.38;;;12.98;81.81
20394;BME280;10356;50.544;9.642;2022-07-06T03:48:57;98806.63;;;12.92;81.99
20394;BME280;10356;50.544;9.642;2022-07-06T03:51:23;98815.19;;;12.94;81.91
20394;BME280;10356;50.544;9.642;2022-07-06T03:53:50;98809.00;;;12.95;81.94
20394;BME280;10356;50.544;9.642;2022-07-06T03:56:17;98812.00;;;13.12;81.44
20394;BME280;10356;50.544;9.642;2022-07-06T03:58:59;98819.19;;;13.42;80.74
20394;BME280;10356;50.544;9.642;2022-07-06T04:01:26;98814.38;;;13.90;79.43
20394;BME280;10356;50.544;9.642;2022-07-06T04:03:53;98819.25;;;14.47;77.21
20394;BME280;10356;50.544;9.642;2022-07-06T04:06:20;98819.94;;;14.99;74.99
20394;BME280;10356;50.544;9.642;2022-07-06T04:08:46;98829.31;;;15.42;72.10
20394;BME280;10356;50.544;9.642;2022-07-06T04:11:13;98828.00;;;15.76;70.20
20394;BME280;10356;50.544;9.642;2022-07-06T04:13:41;98829.84;;;16.14;68.10
20394;BME280;10356;50.544;9.642;2022-07-06T04:16:07;98827.63;;;16.00;67.28
20394;BME280;10356;50.544;9.642;2022-07-06T04:18:34;98835.34;;;15.63;68.38
20394;BME280;10356;50.544;9.642;2022-07-06T04:21:01;98836.47;;;15.30;69.88
20394;BME280;10356;50.544;9.642;2022-07-06T04:23:28;98836.34;;;14.92;71.44
20394;BME280;10356;50.544;9.642;2022-07-06T04:25:55;98836.31;;;14.62;73.38
20394;BME280;10356;50.544;9.642;2022-07-06T04:28:21;98834.47;;;14.53;73.86
20394;BME280;10356;50.544;9.642;2022-07-06T04:30:49;98836.13;;;14.74;74.42
20394;BME280;10356;50.544;9.642;2022-07-06T04:33:15;98837.34;;;15.40;72.41
20394;BME280;10356;50.544;9.642;2022-07-06T04:35:42;98841.34;;;15.93;70.10
20394;BME280;10356;50.544;9.642;2022-07-06T04:38:09;98849.63;;;15.98;69.55
20394;BME280;10356;50.544;9.642;2022-07-06T04:40:35;98841.03;;;16.35;68.23
20394;BME280;10356;50.544;9.642;2022-07-06T04:43:02;98846.84;;;16.48;67.69
20394;BME280;10356;50.544;9.642;2022-07-06T04:45:28;98844.28;;;16.75;65.60
20394;BME280;10356;50.544;9.642;2022-07-06T04:47:56;98836.56;;;16.73;65.66
20394;BME280;10356;50.544;9.642;2022-07-06T04:50:23;98850.72;;;16.44;67.54
20394;BME280;10356;50.544;9.642;2022-07-06T04:52:49;98851.84;;;16.32;67.44
20394;BME280;10356;50.544;9.642;2022-07-06T04:55:16;98853.22;;;16.07;68.66
20394;BME280;10356;50.544;9.642;2022-07-06T04:57:43;98857.91;;;15.84;69.81
20394;BME280;10356;50.544;9.642;2022-07-06T05:00:10;98850.97;;;15.74;70.33
20394;BME280;10356;50.544;9.642;2022-07-06T05:02:37;98854.97;;;15.59;71.11
20394;BME280;10356;50.544;9.642;2022-07-06T05:05:05;98858.44;;;15.59;71.39
20394;BME280;10356;50.544;9.642;2022-07-06T05:07:32;98857.50;;;15.40;71.96
20394;BME280;10356;50.544;9.642;2022-07-06T05:09:59;98868.25;;;15.67;71.35
20394;BME280;10356;50.544;9.642;2022-07-06T05:12:26;98866.31;;;15.59;70.88
20394;BME280;10356;50.544;9.642;2022-07-06T05:14:52;98876.97;;;15.67;70.66
20394;BME280;10356;50.544;9.642;2022-07-06T05:17:19;98874.75;;;15.72;70.48
20394;BME280;10356;50.544;9.642;2022-07-06T05:19:45;98877.63;;;15.60;71.36
20394;BME280;10356;50.544;9.642;2022-07-06T05:22:13;98878.94;;;15.75;70.67
20394;BME280;10356;50.544;9.642;2022-07-06T05:24:39;98876.16;;;15.86;69.80
20394;BME280;10356;50.544;9.642;2022-07-06T05:27:06;98876.75;;;15.99;68.83
20394;BME280;10356;50.544;9.642;2022-07-06T05:29:32;98882.41;;;16.04;67.92
20394;BME280;10356;50.544;9.642;2022-07-06T05:31:59;98896.13;;;16.08;68.26
20394;BME280;10356;50.544;9.642;2022-07-06T05:34:26;98887.81;;;16.12;67.88
20394;BME280;10356;50.544;9.642;2022-07-06T05:36:52;98890.59;;;16.11;66.98
20394;BME280;10356;50.544;9.642;2022-07-06T05:39:20;98890.03;;;16.07;67.48
20394;BME280;10356;50.544;9.642;2022-07-06T05:41:48;98896.66;;;16.21;67.45
20394;BME280;10356;50.544;9.642;2022-07-06T05:44:15;98890.31;;;16.23;67.10
20394;BME280;10356;50.544;9.642;2022-07-06T05:46:41;98888.91;;;16.38;67.10
20394;BME280;10356;50.544;9.642;2022-07-06T05:49:08;98888.66;;;16.41;66.55
20394;BME280;10356;50.544;9.642;2022-07-06T05:51:52;98889.34;;;16.43;66.86
20394;BME280;10356;50.544;9.642;2022-07-06T05:54:18;98890.72;;;16.57;66.23
20394;BME280;10356;50.544;9.642;2022-07-06T05:56:46;98888.94;;;16.57;66.66
20394;BME280;10356;50.544;9.642;2022-07-06T05:59:13;98889.47;;;16.61;66.04
20394;BME280;10356;50.544;9.642;2022-07-06T06:01:39;98890.72;;;16.38;66.88
20394;BME280;10356;50.544;9.642;2022-07-06T06:04:06;98896.53;;;16.70;66.01
20394;BME280;10356;50.544;9.642;2022-07-06T06:06:32;98899.16;;;16.79;65.52
20394;BME280;10356;50.544;9.642;2022-07-06T06:08:59;98893.59;;;16.92;65.35
20394;BME280;10356;50.544;9.642;2022-07-06T06:11:25;98891.94;;;16.82;65.96
20394;BME280;10356;50.544;9.642;2022-07-06T06:13:53;98900.22;;;16.96;64.77
20394;BME280;10356;50.544;9.642;2022-07-06T06:16:20;98894.38;;;17.02;64.43
20394;BME280;10356;50.544;9.642;2022-07-06T06:18:46;98901.88;;;17.07;64.33
20394;BME280;10356;50.544;9.642;2022-07-06T06:21:13;98901.81;;;17.16;64.13
20394;BME280;10356;50.544;9.642;2022-07-06T06:23:39;98900.41;;;17.22;63.71
20394;BME280;10356;50.544;9.642;2022-07-06T06:26:06;98913.16;;;17.26;64.07
20394;BME280;10356;50.544;9.642;2022-07-06T06:28:32;98904.47;;;17.43;64.11
20394;BME280;10356;50.544;9.642;2022-07-06T06:31:00;98914.56;;;17.57;62.62
20394;BME280;10356;50.544;9.642;2022-07-06T06:33:27;98914.56;;;17.57;61.42
20394;BME280;10356;50.544;9.642;2022-07-06T06:35:53;98912.53;;;17.79;61.34
20394;BME280;10356;50.544;9.642;2022-07-06T06:38:21;98917.00;;;17.69;62.20
20394;BME280;10356;50.544;9.642;2022-07-06T06:40:51;98918.63;;;17.42;62.71
20394;BME280;10356;50.544;9.642;2022-07-06T06:43:17;98920.00;;;17.83;61.77
20394;BME280;10356;50.544;9.642;2022-07-06T06:45:44;98914.06;;;17.44;61.48
20394;BME280;10356;50.544;9.642;2022-07-06T06:48:13;98920.47;;;17.32;62.50
20394;BME280;10356;50.544;9.642;2022-07-06T06:50:39;98916.22;;;17.22;63.40
20394;BME280;10356;50.544;9.642;2022-07-06T06:53:06;98914.59;;;17.11;63.13
20394;BME280;10356;50.544;9.642;2022-07-06T06:55:32;98920.38;;;17.24;62.72
20394;BME280;10356;50.544;9.642;2022-07-06T06:57:59;98921.75;;;17.28;63.18
20394;BME280;10356;50.544;9.642;2022-07-06T07:00:25;98923.00;;;17.24;62.52
20394;BME280;10356;50.544;9.642;2022-07-06T07:02:52;98917.88;;;17.87;61.38
20394;BME280;10356;50.544;9.642;2022-07-06T07:05:20;98912.03;;;18.63;61.49
20394;BME280;10356;50.544;9.642;2022-07-06T07:07:46;98911.13;;;19.23;54.86
20394;BME280;10356;50.544;9.642;2022-07-06T07:10:13;98904.16;;;19.90;54.00
20394;BME280;10356;50.544;9.642;2022-07-06T07:12:44;98909.97;;;19.93;51.22
20394;BME280;10356;50.544;9.642;2022-07-06T07:15:11;98917.63;;;19.63;50.67
20394;BME280;10356;50.544;9.642;2022-07-06T07:17:39;98918.78;;;19.09;53.17
20394;BME280;10356;50.544;9.642;2022-07-06T07:20:06;98923.34;;;18.73;53.81
20394;BME280;10356;50.544;9.642;2022-07-06T07:22:35;98925.44;;;19.13;53.24
20394;BME280;10356;50.544;9.642;2022-07-06T07:25:01;98931.44;;;18.97;53.08
20394;BME280;10356;50.544;9.642;2022-07-06T07:27:28;98922.97;;;19.37;52.54
20394;BME280;10356;50.544;9.642;2022-07-06T07:29:54;98923.81;;;19.46;52.54
20394;BME280;10356;50.544;9.642;2022-07-06T07:32:21;98911.06;;;20.41;50.13
20394;BME280;10356;50.544;9.642;2022-07-06T07:34:48;98916.84;;;21.17;48.79
20394;BME280;10356;50.544;9.642;2022-07-06T07:37:14;98931.09;;;21.08;48.42
20394;BME280;10356;50.544;9.642;2022-07-06T07:39:42;98922.50;;;20.57;48.21
20394;BME280;10356;50.544;9.642;2022-07-06T07:42:09;98926.97;;;20.65;47.41
20394;BME280;10356;50.544;9.642;2022-07-06T07:44:35;98933.00;;;20.17;48.27
20394;BME280;10356;50.544;9.642;2022-07-06T07:47:04;98921.38;;;20.02;48.67
20394;BME280;10356;50.544;9.642;2022-07-06T07:49:30;98915.19;;;20.19;48.06
20394;BME280;10356;50.544;9.642;2022-07-06T07:51:57;98917.84;;;20.35;47.19
20394;BME280;10356;50.544;9.642;2022-07-06T07:54:24;98918.03;;;20.66;47.67
20394;BME280;10356;50.544;9.642;2022-07-06T07:56:52;98915.53;;;21.13;46.97
20394;BME280;10356;50.544;9.642;2022-07-06T07:59:19;98908.75;;;21.10;47.34
20394;BME280;10356;50.544;9.642;2022-07-06T08:01:46;98913.41;;;21.55;46.86
20394;BME280;10356;50.544;9.642;2022-07-06T08:04:12;98906.50;;;22.15;46.07
20394;BME280;10356;50.544;9.642;2022-07-06T08:06:39;98911.97;;;21.91;44.68
20394;BME280;10356;50.544;9.642;2022-07-06T08:09:05;98926.84;;;21.45;45.74
20394;BME280;10356;50.544;9.642;2022-07-06T08:11:32;98917.25;;;21.44;46.62
20394;BME280;10356;50.544;9.642;2022-07-06T08:14:01;98919.50;;;22.02;45.67
20394;BME280;10356;50.544;9.642;2022-07-06T08:16:28;98913.59;;;21.92;43.99
20394;BME280;10356;50.544;9.642;2022-07-06T08:18:55;98914.91;;;21.49;45.43
20394;BME280;10356;50.544;9.642;2022-07-06T08:21:22;98901.84;;;22.40;43.54
20394;BME280;10356;50.544;9.642;2022-07-06T08:23:48;98907.53;;;22.60;43.48
20394;BME280;10356;50.544;9.642;2022-07-06T08:26:15;98911.44;;;22.18;43.72
20394;BME280;10356;50.544;9.642;2022-07-06T08:28:41;98917.69;;;20.85;46.44
20394;BME280;10356;50.544;9.642;2022-07-06T08:31:09;98916.72;;;20.70;45.83
20394;BME280;10356;50.544;9.642;2022-07-06T08:33:36;98916.66;;;21.26;45.41
20394;BME280;10356;50.544;9.642;2022-07-06T08:36:03;98905.47;;;22.16;43.20
20394;BME280;10356;50.544;9.642;2022-07-06T08:38:30;98897.38;;;22.63;42.01
20394;BME280;10356;50.544;9.642;2022-07-06T08:40:56;98900.06;;;22.78;41.87
20394;BME280;10356;50.544;9.642;2022-07-06T08:43:23;98903.75;;;22.91;41.05
20394;BME280;10356;50.544;9.642;2022-07-06T08:45:53;98911.03;;;22.75;41.65
20394;BME280;10356;50.544;9.642;2022-07-06T08:48:23;98916.69;;;22.94;41.79
20394;BME280;10356;50.544;9.642;2022-07-06T08:50:49;98915.06;;;22.48;43.06
20394;BME280;10356;50.544;9.642;2022-07-06T08:53:16;98912.94;;;22.43;41.47
20394;BME280;10356;50.544;9.642;2022-07-06T08:55:43;98907.81;;;21.81;42.64
20394;BME280;10356;50.544;9.642;2022-07-06T08:58:11;98906.41;;;22.91;40.70
20394;BME280;10356;50.544;9.642;2022-07-06T09:00:38;98911.69;;;23.58;38.61
20394;BME280;10356;50.544;9.642;2022-07-06T09:03:05;98914.66;;;23.48;37.41
20394;BME280;10356;50.544;9.642;2022-07-06T09:05:34;98911.50;;;23.30;38.36
20394;BME280;10356;50.544;9.642;2022-07-06T09:08:02;98904.56;;;23.44;38.19
20394;BME280;10356;50.544;9.642;2022-07-06T09:10:28;98909.59;;;23.68;37.83
20394;BME280;10356;50.544;9.642;2022-07-06T09:13:02;98905.19;;;23.60;37.60
20394;BME280;10356;50.544;9.642;2022-07-06T09:15:30;98913.19;;;23.96;37.92
20394;BME280;10356;50.544;9.642;2022-07-06T09:17:56;98914.16;;;23.30;37.30
20394;BME280;10356;50.544;9.642;2022-07-06T09:20:24;98918.25;;;23.03;38.12
20394;BME280;10356;50.544;9.642;2022-07-06T09:22:57;98919.56;;;23.22;38.35
20394;BME280;10356;50.544;9.642;2022-07-06T09:25:25;98907.75;;;23.68;38.09
20394;BME280;10356;50.544;9.642;2022-07-06T09:27:51;98902.22;;;23.70;36.64
20394;BME280;10356;50.544;9.642;2022-07-06T09:30:20;98908.88;;;23.45;36.57
20394;BME280;10356;50.544;9.642;2022-07-06T09:32:49;98908.66;;;23.02;37.58
20394;BME280;10356;50.544;9.642;2022-07-06T09:35:20;98901.94;;;22.46;38.62
20394;BME280;10356;50.544;9.642;2022-07-06T09:37:47;98907.59;;;22.89;37.30
20394;BME280;10356;50.544;9.642;2022-07-06T09:40:17;98902.53;;;23.60;35.35
20394;BME280;10356;50.544;9.642;2022-07-06T09:42:44;98906.28;;;23.66;34.72
20394;BME280;10356;50.544;9.642;2022-07-06T09:45:11;98905.13;;;23.39;35.39
20394;BME280;10356;50.544;9.642;2022-07-06T09:47:37;98907.06;;;23.95;34.45
20394;BME280;10356;50.544;9.642;2022-07-06T09:50:07;98901.06;;;24.08;34.22
20394;BME280;10356;50.544;9.642;2022-07-06T09:52:34;98900.16;;;24.58;34.20
20394;BME280;10356;50.544;9.642;2022-07-06T09:55:06;98904.22;;;24.11;35.02
20394;BME280;10356;50.544;9.642;2022-07-06T09:57:51;98908.41;;;24.42;34.04
20394;BME280;10356;50.544;9.642;2022-07-06T10:00:18;98909.66;;;24.25;33.07
20394;BME280;10356;50.544;9.642;2022-07-06T10:02:46;98906.81;;;24.89;32.66
20394;BME280;10356;50.544;9.642;2022-07-06T10:05:15;98916.63;;;25.10;32.21
20394;BME280;10356;50.544;9.642;2022-07-06T10:07:43;98909.16;;;25.33;31.75
20394;BME280;10356;50.544;9.642;2022-07-06T10:10:10;98902.97;;;25.26;32.13
20394;BME280;10356;50.544;9.642;2022-07-06T10:12:37;98898.63;;;25.53;31.38
20394;BME280;10356;50.544;9.642;2022-07-06T10:15:06;98900.22;;;25.47;32.47
20394;BME280;10356;50.544;9.642;2022-07-06T10:17:33;98906.94;;;25.03;33.31
20394;BME280;10356;50.544;9.642;2022-07-06T10:20:01;98902.41;;;25.37;33.99
20394;BME280;10356;50.544;9.642;2022-07-06T10:22:28;98902.09;;;25.19;34.98
20394;BME280;10356;50.544;9.642;2022-07-06T10:24:55;98910.50;;;25.16;34.93
20394;BME280;10356;50.544;9.642;2022-07-06T10:27:24;98894.56;;;25.29;34.13
20394;BME280;10356;50.544;9.642;2022-07-06T10:29:51;98904.28;;;25.37;34.40
20394;BME280;10356;50.544;9.642;2022-07-06T10:32:20;98900.94;;;25.62;34.33
20394;BME280;10356;50.544;9.642;2022-07-06T10:34:49;98901.47;;;25.86;34.11
20394;BME280;10356;50.544;9.642;2022-07-06T10:37:22;98898.81;;;25.99;33.17
20394;BME280;10356;50.544;9.642;2022-07-06T10:39:50;98904.84;;;24.98;34.42
20394;BME280;10356;50.544;9.642;2022-07-06T10:42:42;98891.25;;;25.21;34.09
20394;BME280;10356;50.544;9.642;2022-07-06T10:45:11;98898.09;;;25.36;34.01
20394;BME280;10356;50.544;9.642;2022-07-06T10:47:40;98894.50;;;25.50;32.55
20394;BME280;10356;50.544;9.642;2022-07-06T10:50:07;98896.31;;;25.91;32.71
20394;BME280;10356;50.544;9.642;2022-07-06T10:52:50;98896.75;;;25.88;33.44
20394;BME280;10356;50.544;9.642;2022-07-06T10:55:28;98899.94;;;25.02;32.35
20394;BME280;10356;50.544;9.642;2022-07-06T10:57:55;98892.22;;;25.47;31.72
20394;BME280;10356;50.544;9.642;2022-07-06T11:00:22;98901.78;;;25.35;31.48
20394;BME280;10356;50.544;9.642;2022-07-06T11:02:50;98894.41;;;25.37;31.10
20394;BME280;10356;50.544;9.642;2022-07-06T11:05:40;98888.31;;;25.43;30.73
20394;BME280;10356;50.544;9.642;2022-07-06T11:08:09;98884.47;;;25.52;31.01
20394;BME280;10356;50.544;9.642;2022-07-06T11:10:46;98887.59;;;26.10;30.45
20394;BME280;10356;50.544;9.642;2022-07-06T11:13:24;98891.22;;;25.96;32.00
20394;BME280;10356;50.544;9.642;2022-07-06T11:15:51;98895.94;;;25.46;33.16
20394;BME280;10356;50.544;9.642;2022-07-06T11:18:20;98899.56;;;25.05;32.57
20394;BME280;10356;50.544;9.642;2022-07-06T11:21:17;98905.84;;;25.31;33.09
20394;BME280;10356;50.544;9.642;2022-07-06T11:23:46;98902.41;;;25.37;32.86
20394;BME280;10356;50.544;9.642;2022-07-06T11:26:13;98898.41;;;25.20;31.94
20394;BME280;10356;50.544;9.642;2022-07-06T11:28:40;98901.59;;;25.09;32.62
20394;BME280;10356;50.544;9.642;2022-07-06T11:31:07;98884.88;;;24.66;32.98
20394;BME280;10356;50.544;9.642;2022-07-06T11:33:35;98895.91;;;23.85;33.82
20394;BME280;10356;50.544;9.642;2022-07-06T11:36:15;98890.59;;;23.56;36.12
20394;BME280;10356;50.544;9.642;2022-07-06T11:38:42;98895.38;;;24.11;34.01
20394;BME280;10356;50.544;9.642;2022-07-06T11:41:10;98888.91;;;24.20;34.44
20394;BME280;10356;50.544;9.642;2022-07-06T11:43:39;98880.81;;;24.28;33.82
20394;BME280;10356;50.544;9.642;2022-07-06T11:46:18;98890.19;;;24.24;32.91
20394;BME280;10356;50.544;9.642;2022-07-06T11:48:47;98892.50;;;23.91;33.81
20394;BME280;10356;50.544;9.642;2022-07-06T11:51:14;98890.41;;;23.72;34.35
20394;BME280;10356;50.544;9.642;2022-07-06T11:53:43;98881.38;;;24.45;34.12
20394;BME280;10356;50.544;9.642;2022-07-06T11:56:10;98875.69;;;24.96;31.87
20394;BME280;10356;50.544;9.642;2022-07-06T11:58:39;98881.81;;;25.25;31.42
20394;BME280;10356;50.544;9.642;2022-07-06T12:01:06;98874.63;;;25.25;31.33
20394;BME280;10356;50.544;9.642;2022-07-06T12:03:33;98869.91;;;25.55;31.16
20394;BME280;10356;50.544;9.642;2022-07-06T12:06:02;98873.78;;;25.18;31.01
20394;BME280;10356;50.544;9.642;2022-07-06T12:08:29;98876.13;;;25.00;31.48
20394;BME280;10356;50.544;9.642;2022-07-06T12:10:55;98879.81;;;24.50;32.07
20394;BME280;10356;50.544;9.642;2022-07-06T12:13:22;98883.72;;;24.33;32.44
20394;BME280;10356;50.544;9.642;2022-07-06T12:15:49;98872.25;;;24.11;32.97
20394;BME280;10356;50.544;9.642;2022-07-06T12:18:16;98868.81;;;24.60;32.31
20394;BME280;10356;50.544;9.642;2022-07-06T12:20:43;98869.78;;;24.52;32.06
20394;BME280;10356;50.544;9.642;2022-07-06T12:23:11;98875.38;;;24.85;31.50
20394;BME280;10356;50.544;9.642;2022-07-06T12:25:37;98863.56;;;25.28;31.81
20394;BME280;10356;50.544;9.642;2022-07-06T12:28:04;98863.09;;;24.84;30.73
20394;BME280;10356;50.544;9.642;2022-07-06T12:30:31;98866.78;;;24.62;32.62
20394;BME280;10356;50.544;9.642;2022-07-06T12:33:12;98865.69;;;24.77;32.17
20394;BME280;10356;50.544;9.642;2022-07-06T12:35:39;98860.13;;;25.00;32.61
20394;BME280;10356;50.544;9.642;2022-07-06T12:38:07;98857.16;;;25.50;31.76
20394;BME280;10356;50.544;9.642;2022-07-06T12:40:36;98858.16;;;25.15;31.06
20394;BME280;10356;50.544;9.642;2022-07-06T12:43:06;98870.38;;;24.96;30.91
20394;BME280;10356;50.544;9.642;2022-07-06T12:45:32;98863.41;;;25.02;30.92
20394;BME280;10356;50.544;9.642;2022-07-06T12:48:00;98850.81;;;25.24;30.27
20394;BME280;10356;50.544;9.642;2022-07-06T12:50:38;98857.13;;;24.61;31.05
20394;BME280;10356;50.544;9.642;2022-07-06T12:53:23;98859.94;;;24.74;30.73
20394;BME280;10356;50.544;9.642;2022-07-06T12:56:07;98854.59;;;24.74;30.59
20394;BME280;10356;50.544;9.642;2022-07-06T12:58:34;98855.47;;;24.81;31.29
20394;BME280;10356;50.544;9.642;2022-07-06T13:01:01;98860.75;;;24.32;30.97
20394;BME280;10356;50.544;9.642;2022-07-06T13:03:27;98865.91;;;24.34;32.23